sensor_id;sensor_type;location;lat;lon;timestamp;pressure;altitude;pressure_sealevel;temperature;humidity
60371;BME280;48550;40.588;49.684;2023-05-23T00:01:40;101297.63;;;16.33;100.00
60371;BME280;48550;40.588;49.684;2023-05-23T00:04:07;101301.75;;;16.36;100.00
60371;BME280;48550;40.588;49.684;2023-05-23T00:06:34;101307.66;;;16.33;100.00
60371;BME280;48550;40.588;49.684;2023-05-23T00:09:03;101306.81;;;16.32;100.00
60371;BME280;48550;40.588;49.684;2023-05-23T00:11:28;101306.53;;;16.29;100.00
60371;BME280;48550;40.588;49.684;2023-05-23T00:13:55;101300.78;;;16.25;100.00
60371;BME280;48550;40.588;49.684;2023-05-23T00:16:25;101306.47;;;16.24;100.00
60371;BME280;48550;40.588;49.684;2023-05-23T00:18:51;101317.88;;;16.26;100.00
60371;BME280;48550;40.588;49.684;2023-05-23T00:21:17;101323.28;;;16.26;100.00
60371;BME280;48550;40.588;49.684;2023-05-23T00:23:43;101324.09;;;16.26;100.00
60371;BME280;48550;40.588;49.684;2023-05-23T00:26:09;101317.88;;;16.26;100.00
60371;BME280;48550;40.588;49.684;2023-05-23T00:28:38;101319.50;;;16.27;100.00
60371;BME280;48550;40.588;49.684;2023-05-23T00:31:04;101314.91;;;16.27;100.00
60371;BME280;48550;40.588;49.684;2023-05-23T00:33:30;101322.78;;;16.29;100.00
60371;BME280;48550;40.588;49.684;2023-05-23T00:35:58;101324.72;;;16.33;100.00
60371;BME280;48550;40.588;49.684;2023-05-23T00:38:24;101332.91;;;16.38;100.00
60371;BME280;48550;40.588;49.684;2023-05-23T00:40:51;101339.66;;;16.36;100.00
60371;BME280;48550;40.588;49.684;2023-05-23T00:43:17;101339.16;;;16.39;100.00
60371;BME280;48550;40.588;49.684;2023-05-23T00:45:43;101346.50;;;16.43;100.00
60371;BME280;48550;40.588;49.684;2023-05-23T00:48:09;101348.16;;;16.44;100.00
60371;BME280;48550;40.588;49.684;2023-05-23T00:50:36;101358.47;;;16.47;100.00
60371;BME280;48550;40.588;49.684;2023-05-23T00:53:02;101368.28;;;16.53;100.00
60371;BME280;48550;40.588;49.684;2023-05-23T00:55:29;101370.75;;;16.55;100.00
60371;BME280;48550;40.588;49.684;2023-05-23T00:57:55;101367.81;;;16.62;100.00
60371;BME280;48550;40.588;49.684;2023-05-23T01:00:24;101377.94;;;16.66;100.00
60371;BME280;48550;40.588;49.684;2023-05-23T01:02:51;101387.13;;;16.65;100.00
60371;BME280;48550;40.588;49.684;2023-05-23T01:05:18;101384.66;;;16.64;100.00
60371;BME280;48550;40.588;49.684;2023-05-23T01:07:47;101386.06;;;16.66;100.00
60371;BME280;48550;40.588;49.684;2023-05-23T01:10:15;101386.63;;;16.68;100.00
60371;BME280;48550;40.588;49.684;2023-05-23T01:15:57;101382.28;;;16.67;100.00
60371;BME280;48550;40.588;49.684;2023-05-23T01:20:54;101377.53;;;16.58;100.00
60371;BME280;48550;40.588;49.684;2023-05-23T01:32:09;101395.34;;;16.75;100.00
60371;BME280;48550;40.588;49.684;2023-05-23T01:34:37;101397.59;;;16.83;100.00
60371;BME280;48550;40.588;49.684;2023-05-23T01:37:08;101408.75;;;16.87;100.00
60371;BME280;48550;40.588;49.684;2023-05-23T01:39:35;101408.53;;;16.94;100.00
60371;BME280;48550;40.588;49.684;2023-05-23T01:42:01;101408.31;;;17.00;100.00
60371;BME280;48550;40.588;49.684;2023-05-23T01:44:27;101411.63;;;17.07;100.00
60371;BME280;48550;40.588;49.684;2023-05-23T01:46:53;101411.19;;;17.15;100.00
60371;BME280;48550;40.588;49.684;2023-05-23T01:49:19;101407.72;;;17.25;100.00
60371;BME280;48550;40.588;49.684;2023-05-23T01:51:47;101408.88;;;17.34;100.00
60371;BME280;48550;40.588;49.684;2023-05-23T01:54:14;101418.16;;;17.43;100.00
60371;BME280;48550;40.588;49.684;2023-05-23T01:56:44;101412.22;;;17.46;100.00
60371;BME280;48550;40.588;49.684;2023-05-23T01:59:10;101415.50;;;17.54;100.00
60371;BME280;48550;40.588;49.684;2023-05-23T02:01:37;101415.56;;;17.64;100.00
60371;BME280;48550;40.588;49.684;2023-05-23T02:04:03;101416.75;;;17.73;100.00
60371;BME280;48550;40.588;49.684;2023-05-23T02:06:29;101414.59;;;17.80;100.00
60371;BME280;48550;40.588;49.684;2023-05-23T02:08:56;101418.47;;;17.89;100.00
60371;BME280;48550;40.588;49.684;2023-05-23T02:11:21;101423.97;;;17.99;100.00
60371;BME280;48550;40.588;49.684;2023-05-23T02:13:47;101429.16;;;18.06;100.00
60371;BME280;48550;40.588;49.684;2023-05-23T02:16:13;101431.34;;;18.14;100.00
60371;BME280;48550;40.588;49.684;2023-05-23T02:18:39;101443.06;;;18.25;100.00
60371;BME280;48550;40.588;49.684;2023-05-23T02:21:05;101440.94;;;18.32;100.00
60371;BME280;48550;40.588;49.684;2023-05-23T02:23:30;101456.72;;;18.40;100.00
60371;BME280;48550;40.588;49.684;2023-05-23T02:25:56;101454.91;;;18.61;100.00
60371;BME280;48550;40.588;49.684;2023-05-23T02:28:22;101460.16;;;18.93;100.00
60371;BME280;48550;40.588;49.684;2023-05-23T02:30:47;101449.84;;;19.15;100.00
60371;BME280;48550;40.588;49.684;2023-05-23T02:33:13;101447.69;;;19.32;100.00
60371;BME280;48550;40.588;49.684;2023-05-23T02:35:41;101458.03;;;19.35;100.00
60371;BME280;48550;40.588;49.684;2023-05-23T02:38:06;101454.75;;;19.44;100.00
60371;BME280;48550;40.588;49.684;2023-05-23T02:40:32;101458.56;;;19.58;100.00
60371;BME280;48550;40.588;49.684;2023-05-23T02:42:57;101455.56;;;19.64;100.00
60371;BME280;48550;40.588;49.684;2023-05-23T02:45:23;101458.53;;;19.73;100.00
60371;BME280;48550;40.588;49.684;2023-05-23T02:47:49;101459.88;;;19.86;100.00
60371;BME280;48550;40.588;49.684;2023-05-23T02:50:15;101463.44;;;19.81;100.00
60371;BME280;48550;40.588;49.684;2023-05-23T02:52:41;101471.59;;;19.76;100.00
60371;BME280;48550;40.588;49.684;2023-05-23T02:55:07;101463.94;;;19.88;100.00
60371;BME280;48550;40.588;49.684;2023-05-23T02:57:33;101476.44;;;19.99;100.00
60371;BME280;48550;40.588;49.684;2023-05-23T02:59:59;101483.72;;;20.29;100.00
60371;BME280;48550;40.588;49.684;2023-05-23T03:02:25;101494.72;;;20.74;100.00
60371;BME280;48550;40.588;49.684;2023-05-23T03:04:51;101498.31;;;21.13;100.00
60371;BME280;48550;40.588;49.684;2023-05-23T03:07:16;101494.81;;;21.42;100.00
60371;BME280;48550;40.588;49.684;2023-05-23T03:09:42;101498.75;;;21.31;100.00
60371;BME280;48550;40.588;49.684;2023-05-23T03:12:08;101509.63;;;21.36;100.00
60371;BME280;48550;40.588;49.684;2023-05-23T03:14:33;101515.63;;;21.38;100.00
60371;BME280;48550;40.588;49.684;2023-05-23T03:16:59;101515.09;;;21.36;100.00
60371;BME280;48550;40.588;49.684;2023-05-23T03:19:25;101518.06;;;21.39;100.00
60371;BME280;48550;40.588;49.684;2023-05-23T03:21:50;101511.13;;;21.52;100.00
60371;BME280;48550;40.588;49.684;2023-05-23T03:24:17;101515.47;;;21.58;100.00
60371;BME280;48550;40.588;49.684;2023-05-23T03:26:42;101533.16;;;21.66;100.00
60371;BME280;48550;40.588;49.684;2023-05-23T03:29:09;101524.53;;;21.82;100.00
60371;BME280;48550;40.588;49.684;2023-05-23T03:31:35;101532.19;;;21.80;100.00
60371;BME280;48550;40.588;49.684;2023-05-23T03:34:02;101535.59;;;21.67;100.00
60371;BME280;48550;40.588;49.684;2023-05-23T03:36:30;101527.50;;;21.86;100.00
60371;BME280;48550;40.588;49.684;2023-05-23T03:38:58;101531.22;;;21.95;100.00
60371;BME280;48550;40.588;49.684;2023-05-23T03:41:24;101544.66;;;22.20;100.00
60371;BME280;48550;40.588;49.684;2023-05-23T03:43:51;101545.34;;;22.07;100.00
60371;BME280;48550;40.588;49.684;2023-05-23T03:46:16;101557.94;;;22.32;100.00
60371;BME280;48550;40.588;49.684;2023-05-23T03:48:43;101553.38;;;22.23;100.00
60371;BME280;48550;40.588;49.684;2023-05-23T03:51:09;101557.06;;;23.03;100.00
60371;BME280;48550;40.588;49.684;2023-05-23T03:53:35;101557.97;;;23.88;100.00
60371;BME280;48550;40.588;49.684;2023-05-23T03:56:01;101567.06;;;25.34;100.00
60371;BME280;48550;40.588;49.684;2023-05-23T03:58:26;101564.66;;;26.08;100.00
60371;BME280;48550;40.588;49.684;2023-05-23T04:00:52;101553.13;;;26.85;100.00
60371;BME280;48550;40.588;49.684;2023-05-23T04:03:19;101538.22;;;26.95;100.00
60371;BME280;48550;40.588;49.684;2023-05-23T04:05:44;101534.00;;;26.80;100.00
60371;BME280;48550;40.588;49.684;2023-05-23T04:08:10;101529.28;;;25.93;100.00
60371;BME280;48550;40.588;49.684;2023-05-23T04:10:36;101528.84;;;25.46;100.00
60371;BME280;48550;40.588;49.684;2023-05-23T04:13:01;101551.06;;;26.43;97.67
60371;BME280;48550;40.588;49.684;2023-05-23T04:15:27;101551.84;;;26.91;84.66
60371;BME280;48550;40.588;49.684;2023-05-23T04:17:53;101542.78;;;27.00;78.32
60371;BME280;48550;40.588;49.684;2023-05-23T04:20:19;101555.91;;;27.54;73.07
60371;BME280;48550;40.588;49.684;2023-05-23T04:22:44;101564.50;;;27.79;64.81
60371;BME280;48550;40.588;49.684;2023-05-23T04:25:10;101564.34;;;27.75;63.56
60371;BME280;48550;40.588;49.684;2023-05-23T04:27:36;101573.25;;;27.81;67.14
60371;BME280;48550;40.588;49.684;2023-05-23T04:30:05;101582.84;;;28.22;57.27
60371;BME280;48550;40.588;49.684;2023-05-23T04:32:33;101581.50;;;29.25;55.22
60371;BME280;48550;40.588;49.684;2023-05-23T04:34:59;101573.94;;;29.34;54.44
60371;BME280;48550;40.588;49.684;2023-05-23T04:37:26;101569.22;;;29.55;51.89
60371;BME280;48550;40.588;49.684;2023-05-23T04:39:53;101566.59;;;29.71;50.12
60371;BME280;48550;40.588;49.684;2023-05-23T04:42:19;101563.56;;;29.31;51.45
60371;BME280;48550;40.588;49.684;2023-05-23T04:44:49;101564.09;;;28.74;52.75
60371;BME280;48550;40.588;49.684;2023-05-23T04:47:16;101559.38;;;29.25;52.38
60371;BME280;48550;40.588;49.684;2023-05-23T04:49:41;101557.97;;;29.19;50.33
60371;BME280;48550;40.588;49.684;2023-05-23T04:52:07;101557.28;;;29.22;47.20
60371;BME280;48550;40.588;49.684;2023-05-23T04:54:33;101552.16;;;29.32;45.14
60371;BME280;48550;40.588;49.684;2023-05-23T04:57:00;101542.88;;;29.16;45.51
60371;BME280;48550;40.588;49.684;2023-05-23T04:59:26;101542.81;;;29.04;46.75
60371;BME280;48550;40.588;49.684;2023-05-23T05:01:52;101552.63;;;28.93;48.77
60371;BME280;48550;40.588;49.684;2023-05-23T05:04:17;101551.75;;;29.22;49.62
60371;BME280;48550;40.588;49.684;2023-05-23T05:06:43;101540.31;;;29.11;47.34
60371;BME280;48550;40.588;49.684;2023-05-23T05:09:09;101536.16;;;28.75;49.21
60371;BME280;48550;40.588;49.684;2023-05-23T05:11:34;101537.91;;;30.09;45.98
60371;BME280;48550;40.588;49.684;2023-05-23T05:14:00;101531.31;;;30.25;44.16
60371;BME280;48550;40.588;49.684;2023-05-23T05:16:26;101533.50;;;30.20;45.16
60371;BME280;48550;40.588;49.684;2023-05-23T05:18:52;101526.25;;;30.15;42.84
60371;BME280;48550;40.588;49.684;2023-05-23T05:21:17;101524.06;;;28.89;49.16
60371;BME280;48550;40.588;49.684;2023-05-23T05:23:43;101527.59;;;29.52;47.27
60371;BME280;48550;40.588;49.684;2023-05-23T05:26:09;101528.47;;;29.77;44.10
60371;BME280;48550;40.588;49.684;2023-05-23T05:28:34;101536.97;;;30.04;42.05
60371;BME280;48550;40.588;49.684;2023-05-23T05:31:00;101539.16;;;28.91;45.77
60371;BME280;48550;40.588;49.684;2023-05-23T05:33:29;101543.44;;;27.57;47.30
60371;BME280;48550;40.588;49.684;2023-05-23T05:36:03;101538.28;;;28.70;45.42
60371;BME280;48550;40.588;49.684;2023-05-23T05:38:28;101532.94;;;28.94;43.48
60371;BME280;48550;40.588;49.684;2023-05-23T05:40:54;101524.72;;;28.86;43.01
60371;BME280;48550;40.588;49.684;2023-05-23T05:43:20;101527.13;;;29.95;42.13
60371;BME280;48550;40.588;49.684;2023-05-23T05:45:47;101522.66;;;30.02;43.33
60371;BME280;48550;40.588;49.684;2023-05-23T05:48:12;101517.00;;;29.54;46.92
60371;BME280;48550;40.588;49.684;2023-05-23T05:50:38;101518.28;;;29.02;51.60
60371;BME280;48550;40.588;49.684;2023-05-23T05:53:04;101520.91;;;29.53;50.68
60371;BME280;48550;40.588;49.684;2023-05-23T05:55:30;101525.53;;;29.28;53.54
60371;BME280;48550;40.588;49.684;2023-05-23T05:57:56;101520.81;;;29.28;51.23
60371;BME280;48550;40.588;49.684;2023-05-23T06:00:21;101523.44;;;28.33;54.97
60371;BME280;48550;40.588;49.684;2023-05-23T06:02:48;101524.31;;;28.96;52.89
60371;BME280;48550;40.588;49.684;2023-05-23T06:05:19;101525.91;;;29.38;52.77
60371;BME280;48550;40.588;49.684;2023-05-23T06:07:47;101524.66;;;27.97;58.36
60371;BME280;48550;40.588;49.684;2023-05-23T06:10:14;101529.72;;;29.13;51.63
60371;BME280;48550;40.588;49.684;2023-05-23T06:12:40;101526.03;;;28.21;57.37
60371;BME280;48550;40.588;49.684;2023-05-23T06:15:07;101528.69;;;28.08;54.88
60371;BME280;48550;40.588;49.684;2023-05-23T06:17:34;101526.69;;;28.17;49.59
60371;BME280;48550;40.588;49.684;2023-05-23T06:20:00;101516.53;;;28.01;49.83
60371;BME280;48550;40.588;49.684;2023-05-23T06:22:25;101511.38;;;28.37;46.75
60371;BME280;48550;40.588;49.684;2023-05-23T06:24:51;101506.94;;;27.34;54.59
60371;BME280;48550;40.588;49.684;2023-05-23T06:27:17;101506.34;;;28.39;49.42
60371;BME280;48550;40.588;49.684;2023-05-23T06:29:43;101523.63;;;28.78;48.13
60371;BME280;48550;40.588;49.684;2023-05-23T06:32:08;101512.84;;;27.88;53.21
60371;BME280;48550;40.588;49.684;2023-05-23T06:34:34;101506.69;;;28.21;52.58
60371;BME280;48550;40.588;49.684;2023-05-23T06:36:59;101512.59;;;28.48;50.50
60371;BME280;48550;40.588;49.684;2023-05-23T06:39:25;101503.31;;;28.24;50.82
60371;BME280;48550;40.588;49.684;2023-05-23T06:41:52;101495.47;;;28.85;49.85
60371;BME280;48550;40.588;49.684;2023-05-23T06:44:18;101498.22;;;27.15;56.37
60371;BME280;48550;40.588;49.684;2023-05-23T06:46:46;101502.19;;;26.57;63.26
60371;BME280;48550;40.588;49.684;2023-05-23T06:49:13;101507.41;;;27.71;52.42
60371;BME280;48550;40.588;49.684;2023-05-23T06:51:39;101507.97;;;27.94;53.17
60371;BME280;48550;40.588;49.684;2023-05-23T06:54:05;101514.50;;;28.18;51.85
60371;BME280;48550;40.588;49.684;2023-05-23T06:56:31;101506.59;;;28.97;50.61
60371;BME280;48550;40.588;49.684;2023-05-23T06:58:56;101496.13;;;28.23;47.27
60371;BME280;48550;40.588;49.684;2023-05-23T07:01:22;101492.47;;;28.48;44.93
60371;BME280;48550;40.588;49.684;2023-05-23T07:03:48;101496.41;;;28.00;50.33
60371;BME280;48550;40.588;49.684;2023-05-23T07:06:14;101484.06;;;28.06;48.95
60371;BME280;48550;40.588;49.684;2023-05-23T07:08:39;101474.91;;;26.29;58.31
60371;BME280;48550;40.588;49.684;2023-05-23T07:11:05;101476.94;;;26.64;59.92
60371;BME280;48550;40.588;49.684;2023-05-23T07:13:31;101480.34;;;27.64;54.25
60371;BME280;48550;40.588;49.684;2023-05-23T07:15:57;101474.66;;;27.43;54.79
60371;BME280;48550;40.588;49.684;2023-05-23T07:18:23;101472.91;;;27.94;51.02
60371;BME280;48550;40.588;49.684;2023-05-23T07:20:49;101471.69;;;28.12;49.38
60371;BME280;48550;40.588;49.684;2023-05-23T07:23:15;101466.13;;;28.30;49.42
60371;BME280;48550;40.588;49.684;2023-05-23T07:25:41;101468.81;;;28.38;49.91
60371;BME280;48550;40.588;49.684;2023-05-23T07:28:08;101458.63;;;28.22;53.54
60371;BME280;48550;40.588;49.684;2023-05-23T07:30:34;101454.94;;;28.47;51.65
60371;BME280;48550;40.588;49.684;2023-05-23T07:33:00;101446.25;;;28.36;51.32
60371;BME280;48550;40.588;49.684;2023-05-23T07:35:26;101447.41;;;27.42;55.77
60371;BME280;48550;40.588;49.684;2023-05-23T07:37:52;101450.31;;;27.63;55.91
60371;BME280;48550;40.588;49.684;2023-05-23T07:40:18;101449.31;;;27.76;56.88
60371;BME280;48550;40.588;49.684;2023-05-23T07:42:44;101434.63;;;27.37;57.45
60371;BME280;48550;40.588;49.684;2023-05-23T07:45:10;101434.31;;;27.30;56.94
60371;BME280;48550;40.588;49.684;2023-05-23T07:47:36;101425.38;;;26.21;64.33
60371;BME280;48550;40.588;49.684;2023-05-23T07:50:02;101420.41;;;25.92;67.09
60371;BME280;48550;40.588;49.684;2023-05-23T07:52:31;101420.31;;;25.13;76.18
60371;BME280;48550;40.588;49.684;2023-05-23T07:54:57;101421.16;;;25.22;78.02
60371;BME280;48550;40.588;49.684;2023-05-23T07:57:23;101429.22;;;24.96;70.70
60371;BME280;48550;40.588;49.684;2023-05-23T07:59:50;101419.34;;;23.82;92.29
60371;BME280;48550;40.588;49.684;2023-05-23T08:02:16;101426.13;;;24.39;90.10
60371;BME280;48550;40.588;49.684;2023-05-23T08:04:42;101422.56;;;24.38;88.86
60371;BME280;48550;40.588;49.684;2023-05-23T08:07:09;101418.94;;;24.29;84.04
60371;BME280;48550;40.588;49.684;2023-05-23T08:09:36;101409.06;;;24.15;86.04
60371;BME280;48550;40.588;49.684;2023-05-23T08:12:02;101403.91;;;24.27;81.40
60371;BME280;48550;40.588;49.684;2023-05-23T08:14:28;101409.41;;;23.99;99.68
60371;BME280;48550;40.588;49.684;2023-05-23T08:16:54;101406.53;;;24.18;97.40
60371;BME280;48550;40.588;49.684;2023-05-23T08:19:20;101400.47;;;23.80;100.00
60371;BME280;48550;40.588;49.684;2023-05-23T08:21:46;101395.75;;;24.22;93.91
60371;BME280;48550;40.588;49.684;2023-05-23T08:24:12;101397.78;;;24.16;88.34
60371;BME280;48550;40.588;49.684;2023-05-23T08:26:38;101395.38;;;24.01;94.67
60371;BME280;48550;40.588;49.684;2023-05-23T08:29:04;101398.22;;;23.55;100.00
60371;BME280;48550;40.588;49.684;2023-05-23T08:31:30;101397.03;;;23.88;100.00
60371;BME280;48550;40.588;49.684;2023-05-23T08:33:58;101398.63;;;23.89;100.00
60371;BME280;48550;40.588;49.684;2023-05-23T08:36:24;101394.88;;;22.93;100.00
60371;BME280;48550;40.588;49.684;2023-05-23T08:38:50;101393.75;;;23.12;100.00
60371;BME280;48550;40.588;49.684;2023-05-23T08:41:21;101384.41;;;23.60;100.00
60371;BME280;48550;40.588;49.684;2023-05-23T08:43:47;101376.38;;;23.63;100.00
60371;BME280;48550;40.588;49.684;2023-05-23T08:46:14;101382.84;;;23.40;100.00
60371;BME280;48550;40.588;49.684;2023-05-23T08:48:42;101376.50;;;23.86;100.00
60371;BME280;48550;40.588;49.684;2023-05-23T08:51:12;101367.06;;;23.92;100.00
60371;BME280;48550;40.588;49.684;2023-05-23T08:53:42;101365.69;;;23.48;99.28
60371;BME280;48550;40.588;49.684;2023-05-23T08:56:11;101355.22;;;23.23;100.00
60371;BME280;48550;40.588;49.684;2023-05-23T08:58:39;101347.22;;;23.54;92.80
60371;BME280;48550;40.588;49.684;2023-05-23T09:01:10;101352.44;;;23.69;89.25
60371;BME280;48550;40.588;49.684;2023-05-23T09:03:36;101347.00;;;23.23;100.00
60371;BME280;48550;40.588;49.684;2023-05-23T09:06:05;101344.41;;;23.72;100.00
60371;BME280;48550;40.588;49.684;2023-05-23T09:08:31;101337.47;;;24.16;91.50
60371;BME280;48550;40.588;49.684;2023-05-23T09:10:57;101327.38;;;24.25;90.36
60371;BME280;48550;40.588;49.684;2023-05-23T09:13:24;101325.34;;;24.31;90.46
60371;BME280;48550;40.588;49.684;2023-05-23T09:16:03;101326.31;;;24.71;81.32
60371;BME280;48550;40.588;49.684;2023-05-23T09:18:42;101315.38;;;25.02;84.24
60371;BME280;48550;40.588;49.684;2023-05-23T09:21:09;101319.16;;;25.46;81.37
60371;BME280;48550;40.588;49.684;2023-05-23T09:23:36;101316.38;;;25.85;79.68
60371;BME280;48550;40.588;49.684;2023-05-23T09:26:07;101312.53;;;26.73;53.82
60371;BME280;48550;40.588;49.684;2023-05-23T09:28:35;101311.00;;;27.48;49.15
60371;BME280;48550;40.588;49.684;2023-05-23T09:31:02;101308.09;;;28.03;45.74
60371;BME280;48550;40.588;49.684;2023-05-23T09:33:37;101313.44;;;28.50;44.91
60371;BME280;48550;40.588;49.684;2023-05-23T09:36:04;101307.63;;;28.97;43.48
60371;BME280;48550;40.588;49.684;2023-05-23T09:38:31;101302.59;;;28.78;43.61
60371;BME280;48550;40.588;49.684;2023-05-23T09:40:58;101306.28;;;29.03;43.21
60371;BME280;48550;40.588;49.684;2023-05-23T09:43:23;101300.41;;;29.17;42.14
60371;BME280;48550;40.588;49.684;2023-05-23T09:45:51;101298.19;;;28.98;41.64
60371;BME280;48550;40.588;49.684;2023-05-23T09:48:16;101294.66;;;29.22;42.19
60371;BME280;48550;40.588;49.684;2023-05-23T09:50:44;101296.84;;;29.28;41.12
60371;BME280;48550;40.588;49.684;2023-05-23T09:53:10;101286.25;;;29.06;41.46
60371;BME280;48550;40.588;49.684;2023-05-23T09:55:37;101288.28;;;28.97;41.53
60371;BME280;48550;40.588;49.684;2023-05-23T09:58:05;101277.50;;;29.04;41.05
60371;BME280;48550;40.588;49.684;2023-05-23T10:00:32;101282.75;;;28.97;41.46
60371;BME280;48550;40.588;49.684;2023-05-23T10:03:09;101283.66;;;28.89;42.34
60371;BME280;48550;40.588;49.684;2023-05-23T10:05:43;101276.00;;;29.06;42.21
60371;BME280;48550;40.588;49.684;2023-05-23T10:08:20;101276.22;;;29.01;42.08
60371;BME280;48550;40.588;49.684;2023-05-23T10:13:42;101272.09;;;29.44;41.64
60371;BME280;48550;40.588;49.684;2023-05-23T10:17:17;101276.34;;;29.29;41.17
60371;BME280;48550;40.588;49.684;2023-05-23T10:22:11;101271.69;;;28.97;42.63
60371;BME280;48550;40.588;49.684;2023-05-23T10:24:38;101261.31;;;28.94;43.44
60371;BME280;48550;40.588;49.684;2023-05-23T10:27:05;101247.50;;;28.94;42.68
60371;BME280;48550;40.588;49.684;2023-05-23T10:29:31;101249.94;;;28.95;42.54
60371;BME280;48550;40.588;49.684;2023-05-23T10:32:01;101254.44;;;29.00;42.81
60371;BME280;48550;40.588;49.684;2023-05-23T10:40:01;101247.28;;;28.87;43.60
60371;BME280;48550;40.588;49.684;2023-05-23T10:45:23;101242.38;;;28.71;43.69
60371;BME280;48550;40.588;49.684;2023-05-23T10:47:51;101230.66;;;28.74;43.77
60371;BME280;48550;40.588;49.684;2023-05-23T10:50:34;101241.69;;;28.74;43.79
60371;BME280;48550;40.588;49.684;2023-05-23T10:53:05;101237.53;;;28.56;44.15
60371;BME280;48550;40.588;49.684;2023-05-23T10:55:35;101230.69;;;28.41;44.18
60371;BME280;48550;40.588;49.684;2023-05-23T10:58:17;101229.75;;;28.37;44.67
60371;BME280;48550;40.588;49.684;2023-05-23T11:00:52;101217.00;;;28.45;45.01
60371;BME280;48550;40.588;49.684;2023-05-23T11:03:29;101224.38;;;28.41;44.27
60371;BME280;48550;40.588;49.684;2023-05-23T11:05:56;101217.00;;;28.45;44.62
60371;BME280;48550;40.588;49.684;2023-05-23T11:08:23;101223.09;;;28.38;44.74
60371;BME280;48550;40.588;49.684;2023-05-23T11:10:59;101209.56;;;28.58;44.92
60371;BME280;48550;40.588;49.684;2023-05-23T11:13:26;101209.47;;;28.66;43.95
60371;BME280;48550;40.588;49.684;2023-05-23T11:16:43;101217.53;;;28.71;44.88
60371;BME280;48550;40.588;49.684;2023-05-23T11:21:58;101205.63;;;29.04;44.76
60371;BME280;48550;40.588;49.684;2023-05-23T11:24:48;101193.06;;;29.19;44.61
60371;BME280;48550;40.588;49.684;2023-05-23T11:27:15;101199.50;;;29.35;43.58
60371;BME280;48550;40.588;49.684;2023-05-23T11:29:54;101198.72;;;29.22;43.49
60371;BME280;48550;40.588;49.684;2023-05-23T11:32:22;101198.44;;;29.39;43.49
60371;BME280;48550;40.588;49.684;2023-05-23T11:34:48;101197.19;;;29.37;42.77
60371;BME280;48550;40.588;49.684;2023-05-23T11:37:14;101191.41;;;29.54;42.81
60371;BME280;48550;40.588;49.684;2023-05-23T11:39:41;101188.19;;;29.52;43.10
60371;BME280;48550;40.588;49.684;2023-05-23T11:42:07;101188.88;;;29.61;42.87
60371;BME280;48550;40.588;49.684;2023-05-23T11:44:33;101174.03;;;29.54;42.43
60371;BME280;48550;40.588;49.684;2023-05-23T11:47:03;101183.81;;;29.39;43.52
60371;BME280;48550;40.588;49.684;2023-05-23T11:49:37;101177.47;;;29.38;43.17
60371;BME280;48550;40.588;49.684;2023-05-23T11:52:03;101178.88;;;29.32;43.23
60371;BME280;48550;40.588;49.684;2023-05-23T11:54:31;101180.28;;;29.26;44.25
60371;BME280;48550;40.588;49.684;2023-05-23T11:56:56;101183.94;;;29.30;43.95
60371;BME280;48550;40.588;49.684;2023-05-23T11:59:23;101187.16;;;29.32;43.92
60371;BME280;48550;40.588;49.684;2023-05-23T12:01:53;101179.13;;;29.27;43.53
60371;BME280;48550;40.588;49.684;2023-05-23T12:04:19;101184.53;;;29.24;43.74
60371;BME280;48550;40.588;49.684;2023-05-23T12:06:46;101191.78;;;29.28;43.76
60371;BME280;48550;40.588;49.684;2023-05-23T12:09:15;101194.06;;;29.38;44.31
60371;BME280;48550;40.588;49.684;2023-05-23T12:11:42;101183.97;;;29.18;43.95
60371;BME280;48550;40.588;49.684;2023-05-23T12:14:13;101195.69;;;29.27;43.00
60371;BME280;48550;40.588;49.684;2023-05-23T12:16:42;101195.81;;;29.31;43.56
60371;BME280;48550;40.588;49.684;2023-05-23T12:19:09;101205.47;;;29.37;43.38
60371;BME280;48550;40.588;49.684;2023-05-23T12:21:45;101212.50;;;29.34;42.74
60371;BME280;48550;40.588;49.684;2023-05-23T12:24:20;101204.47;;;29.29;43.26
60371;BME280;48550;40.588;49.684;2023-05-23T12:26:48;101206.53;;;29.32;43.46
60371;BME280;48550;40.588;49.684;2023-05-23T12:29:14;101202.16;;;29.31;42.20
60371;BME280;48550;40.588;49.684;2023-05-23T12:31:40;101199.28;;;29.16;43.28
60371;BME280;48550;40.588;49.684;2023-05-23T12:34:06;101199.84;;;29.21;43.15
60371;BME280;48550;40.588;49.684;2023-05-23T12:36:33;101201.47;;;29.22;43.49
60371;BME280;48550;40.588;49.684;2023-05-23T12:39:03;101198.03;;;29.13;43.99
60371;BME280;48550;40.588;49.684;2023-05-23T12:41:32;101195.03;;;29.06;44.11
60371;BME280;48550;40.588;49.684;2023-05-23T12:43:58;101200.34;;;28.99;43.33
60371;BME280;48550;40.588;49.684;2023-05-23T12:46:25;101194.31;;;28.97;43.50
60371;BME280;48550;40.588;49.684;2023-05-23T12:48:52;101205.13;;;28.90;43.37
60371;BME280;48550;40.588;49.684;2023-05-23T12:51:19;101204.75;;;28.79;43.91
60371;BME280;48550;40.588;49.684;2023-05-23T12:53:45;101204.53;;;28.72;44.50
60371;BME280;48550;40.588;49.684;2023-05-23T12:56:11;101195.78;;;28.70;44.15
60371;BME280;48550;40.588;49.684;2023-05-23T12:58:36;101195.41;;;28.59;44.98
60371;BME280;48550;40.588;49.684;2023-05-23T13:01:03;101197.03;;;28.72;44.53
60371;BME280;48550;40.588;49.684;2023-05-23T13:03:29;101187.81;;;28.68;44.63
60371;BME280;48550;40.588;49.684;2023-05-23T13:05:56;101189.88;;;28.59;45.19
60371;BME280;48550;40.588;49.684;2023-05-23T13:08:25;101179.19;;;28.58;45.77